sensor_id;sensor_type;location;lat;lon;timestamp;temperature;humidity
33594;DHT22;19920;52.242;20.940;2022-12-29T00:02:09;7.20;99.90
33594;DHT22;19920;52.242;20.940;2022-12-29T00:04:35;7.30;99.90
33594;DHT22;19920;52.242;20.940;2022-12-29T00:07:00;7.20;99.90
33594;DHT22;19920;52.242;20.940;2022-12-29T00:09:26;7.10;99.90
33594;DHT22;19920;52.242;20.940;2022-12-29T00:11:52;7.10;99.90
33594;DHT22;19920;52.242;20.940;2022-12-29T00:14:18;7.00;99.90
33594;DHT22;19920;52.242;20.940;2022-12-29T00:17:03;7.10;99.90
33594;DHT22;19920;52.242;20.940;2022-12-29T00:19:28;7.10;99.90
33594;DHT22;19920;52.242;20.940;2022-12-29T00:22:14;7.20;99.90
33594;DHT22;19920;52.242;20.940;2022-12-29T00:24:59;7.20;99.90
33594;DHT22;19920;52.242;20.940;2022-12-29T00:27:43;7.10;99.90
33594;DHT22;19920;52.242;20.940;2022-12-29T00:30:27;7.10;99.90
33594;DHT22;19920;52.242;20.940;2022-12-29T00:38:50;7.10;99.90
33594;DHT22;19920;52.242;20.940;2022-12-29T00:41:35;7.20;99.90
33594;DHT22;19920;52.242;20.940;2022-12-29T00:44:19;7.10;99.90
33594;DHT22;19920;52.242;20.940;2022-12-29T00:46:45;7.10;99.90
33594;DHT22;19920;52.242;20.940;2022-12-29T00:49:12;7.20;99.90
33594;DHT22;19920;52.242;20.940;2022-12-29T00:52:17;7.20;99.90
33594;DHT22;19920;52.242;20.940;2022-12-29T00:54:42;7.10;99.90
33594;DHT22;19920;52.242;20.940;2022-12-29T00:57:10;7.20;99.90
33594;DHT22;19920;52.242;20.940;2022-12-29T00:59:37;7.20;99.90
33594;DHT22;19920;52.242;20.940;2022-12-29T01:02:03;7.20;99.90
33594;DHT22;19920;52.242;20.940;2022-12-29T01:04:29;7.30;99.90
33594;DHT22;19920;52.242;20.940;2022-12-29T01:06:54;7.20;99.90
33594;DHT22;19920;52.242;20.940;2022-12-29T01:09:20;7.30;99.90
33594;DHT22;19920;52.242;20.940;2022-12-29T01:12:05;7.30;99.90
33594;DHT22;19920;52.242;20.940;2022-12-29T01:14:31;7.30;99.90
33594;DHT22;19920;52.242;20.940;2022-12-29T01:16:57;7.30;99.90
33594;DHT22;19920;52.242;20.940;2022-12-29T01:19:23;7.40;99.90
33594;DHT22;19920;52.242;20.940;2022-12-29T01:21:49;7.40;99.90
33594;DHT22;19920;52.242;20.940;2022-12-29T01:24:16;7.40;99.90
33594;DHT22;19920;52.242;20.940;2022-12-29T01:26:42;7.40;99.90
33594;DHT22;19920;52.242;20.940;2022-12-29T01:29:08;7.50;99.90
33594;DHT22;19920;52.242;20.940;2022-12-29T01:31:33;7.50;99.90
33594;DHT22;19920;52.242;20.940;2022-12-29T01:33:59;7.40;99.90
33594;DHT22;19920;52.242;20.940;2022-12-29T01:36:25;7.40;99.90
33594;DHT22;19920;52.242;20.940;2022-12-29T01:38:50;7.40;99.90
33594;DHT22;19920;52.242;20.940;2022-12-29T01:41:17;7.40;99.90
33594;DHT22;19920;52.242;20.940;2022-12-29T01:43:50;7.40;99.90
33594;DHT22;19920;52.242;20.940;2022-12-29T01:46:22;7.30;99.90
33594;DHT22;19920;52.242;20.940;2022-12-29T01:48:52;7.30;99.90
33594;DHT22;19920;52.242;20.940;2022-12-29T01:51:21;7.30;99.90
33594;DHT22;19920;52.242;20.940;2022-12-29T01:53:47;7.20;99.90
33594;DHT22;19920;52.242;20.940;2022-12-29T01:56:15;7.20;99.90
33594;DHT22;19920;52.242;20.940;2022-12-29T01:58:45;7.20;99.90
33594;DHT22;19920;52.242;20.940;2022-12-29T02:01:12;7.20;99.90
33594;DHT22;19920;52.242;20.940;2022-12-29T02:03:38;7.20;99.90
33594;DHT22;19920;52.242;20.940;2022-12-29T02:06:26;7.20;99.90
33594;DHT22;19920;52.242;20.940;2022-12-29T02:08:55;7.20;99.90
33594;DHT22;19920;52.242;20.940;2022-12-29T02:11:23;7.10;99.90
33594;DHT22;19920;52.242;20.940;2022-12-29T02:13:49;7.10;99.90
33594;DHT22;19920;52.242;20.940;2022-12-29T02:28:03;6.90;99.90
33594;DHT22;19920;52.242;20.940;2022-12-29T02:41:55;6.80;99.90
33594;DHT22;19920;52.242;20.940;2022-12-29T02:47:23;6.80;99.90
33594;DHT22;19920;52.242;20.940;2022-12-29T02:50:25;6.70;99.90
33594;DHT22;19920;52.242;20.940;2022-12-29T02:53:09;6.80;99.90
33594;DHT22;19920;52.242;20.940;2022-12-29T02:55:36;6.70;99.90
33594;DHT22;19920;52.242;20.940;2022-12-29T02:58:22;6.70;99.90
33594;DHT22;19920;52.242;20.940;2022-12-29T03:03:38;6.60;99.90
33594;DHT22;19920;52.242;20.940;2022-12-29T03:08:48;6.50;99.90
33594;DHT22;19920;52.242;20.940;2022-12-29T03:11:16;6.40;99.90
33594;DHT22;19920;52.242;20.940;2022-12-29T03:15:11;6.40;99.90
33594;DHT22;19920;52.242;20.940;2022-12-29T03:17:53;6.40;99.90
33594;DHT22;19920;52.242;20.940;2022-12-29T03:20:24;6.40;99.90
33594;DHT22;19920;52.242;20.940;2022-12-29T03:22:56;6.30;99.90
33594;DHT22;19920;52.242;20.940;2022-12-29T03:25:27;6.20;99.90
33594;DHT22;19920;52.242;20.940;2022-12-29T03:30:41;6.20;99.90
33594;DHT22;19920;52.242;20.940;2022-12-29T03:33:10;6.30;99.90
33594;DHT22;19920;52.242;20.940;2022-12-29T03:35:39;6.30;99.90
33594;DHT22;19920;52.242;20.940;2022-12-29T03:38:07;6.10;99.90
33594;DHT22;19920;52.242;20.940;2022-12-29T03:40:38;6.10;99.90
33594;DHT22;19920;52.242;20.940;2022-12-29T03:43:05;6.00;99.90
33594;DHT22;19920;52.242;20.940;2022-12-29T03:45:31;6.00;99.90
33594;DHT22;19920;52.242;20.940;2022-12-29T03:47:56;6.00;99.90
33594;DHT22;19920;52.242;20.940;2022-12-29T03:50:22;5.90;99.90
33594;DHT22;19920;52.242;20.940;2022-12-29T03:52:48;5.90;99.90
33594;DHT22;19920;52.242;20.940;2022-12-29T03:55:13;5.80;99.90
33594;DHT22;19920;52.242;20.940;2022-12-29T03:57:39;5.80;99.90
33594;DHT22;19920;52.242;20.940;2022-12-29T04:00:06;5.70;99.90
33594;DHT22;19920;52.242;20.940;2022-12-29T04:02:32;5.80;99.90
33594;DHT22;19920;52.242;20.940;2022-12-29T04:04:57;5.80;99.90
33594;DHT22;19920;52.242;20.940;2022-12-29T04:07:23;5.70;99.90
33594;DHT22;19920;52.242;20.940;2022-12-29T04:09:48;5.70;99.90
33594;DHT22;19920;52.242;20.940;2022-12-29T04:12:14;5.70;99.90
33594;DHT22;19920;52.242;20.940;2022-12-29T04:14:40;5.70;99.90
33594;DHT22;19920;52.242;20.940;2022-12-29T04:17:06;5.70;99.90
33594;DHT22;19920;52.242;20.940;2022-12-29T04:19:31;5.70;99.90
33594;DHT22;19920;52.242;20.940;2022-12-29T04:21:57;5.70;99.90
33594;DHT22;19920;52.242;20.940;2022-12-29T04:24:23;5.70;99.90
33594;DHT22;19920;52.242;20.940;2022-12-29T04:26:49;5.70;99.90
33594;DHT22;19920;52.242;20.940;2022-12-29T04:29:15;5.80;99.90
33594;DHT22;19920;52.242;20.940;2022-12-29T04:31:40;5.80;99.90
33594;DHT22;19920;52.242;20.940;2022-12-29T04:34:06;5.70;99.90
33594;DHT22;19920;52.242;20.940;2022-12-29T04:36:32;5.60;99.90
33594;DHT22;19920;52.242;20.940;2022-12-29T04:38:57;5.50;99.90
33594;DHT22;19920;52.242;20.940;2022-12-29T04:41:24;5.50;99.90
33594;DHT22;19920;52.242;20.940;2022-12-29T04:43:49;5.50;99.90
33594;DHT22;19920;52.242;20.940;2022-12-29T04:46:15;5.60;99.90
33594;DHT22;19920;52.242;20.940;2022-12-29T04:48:41;5.60;99.90
33594;DHT22;19920;52.242;20.940;2022-12-29T04:51:06;5.60;99.90
33594;DHT22;19920;52.242;20.940;2022-12-29T04:53:32;5.60;99.90
33594;DHT22;19920;52.242;20.940;2022-12-29T04:55:58;5.60;99.90
33594;DHT22;19920;52.242;20.940;2022-12-29T04:58:23;5.60;99.90
33594;DHT22;19920;52.242;20.940;2022-12-29T05:00:50;5.50;99.90
33594;DHT22;19920;52.242;20.940;2022-12-29T05:03:16;5.40;99.90
33594;DHT22;19920;52.242;20.940;2022-12-29T05:05:41;5.50;99.90
33594;DHT22;19920;52.242;20.940;2022-12-29T05:08:07;5.40;99.90
33594;DHT22;19920;52.242;20.940;2022-12-29T05:10:33;5.50;99.90
33594;DHT22;19920;52.242;20.940;2022-12-29T05:12:58;5.40;99.90
33594;DHT22;19920;52.242;20.940;2022-12-29T05:15:25;5.50;99.90
33594;DHT22;19920;52.242;20.940;2022-12-29T05:17:50;5.50;99.90
33594;DHT22;19920;52.242;20.940;2022-12-29T05:20:16;5.50;99.90
33594;DHT22;19920;52.242;20.940;2022-12-29T05:22:42;5.50;99.90
33594;DHT22;19920;52.242;20.940;2022-12-29T05:25:08;5.60;99.90
33594;DHT22;19920;52.242;20.940;2022-12-29T05:27:34;5.50;99.90
33594;DHT22;19920;52.242;20.940;2022-12-29T05:29:59;5.60;99.90
33594;DHT22;19920;52.242;20.940;2022-12-29T05:32:25;5.60;99.90
33594;DHT22;19920;52.242;20.940;2022-12-29T05:34:51;5.60;99.90
33594;DHT22;19920;52.242;20.940;2022-12-29T05:37:16;5.50;99.90
33594;DHT22;19920;52.242;20.940;2022-12-29T05:39:42;5.50;99.90
33594;DHT22;19920;52.242;20.940;2022-12-29T05:42:07;5.50;99.90
33594;DHT22;19920;52.242;20.940;2022-12-29T05:44:33;5.50;99.90
33594;DHT22;19920;52.242;20.940;2022-12-29T05:46:59;5.50;99.90
33594;DHT22;19920;52.242;20.940;2022-12-29T05:49:24;5.40;99.90
33594;DHT22;19920;52.242;20.940;2022-12-29T05:51:50;5.40;99.90
33594;DHT22;19920;52.242;20.940;2022-12-29T05:54:16;5.40;99.90
33594;DHT22;19920;52.242;20.940;2022-12-29T05:56:42;5.40;99.90
33594;DHT22;19920;52.242;20.940;2022-12-29T05:59:07;5.40;99.90
33594;DHT22;19920;52.242;20.940;2022-12-29T06:01:33;5.40;99.90
33594;DHT22;19920;52.242;20.940;2022-12-29T06:04:00;5.50;99.90
33594;DHT22;19920;52.242;20.940;2022-12-29T06:06:25;5.60;99.90
33594;DHT22;19920;52.242;20.940;2022-12-29T06:08:51;5.60;99.90
33594;DHT22;19920;52.242;20.940;2022-12-29T06:11:17;5.60;99.90
33594;DHT22;19920;52.242;20.940;2022-12-29T06:13:42;5.70;99.90
33594;DHT22;19920;52.242;20.940;2022-12-29T06:16:08;5.70;99.90
33594;DHT22;19920;52.242;20.940;2022-12-29T06:18:34;5.80;99.90
33594;DHT22;19920;52.242;20.940;2022-12-29T06:21:04;5.80;99.90
33594;DHT22;19920;52.242;20.940;2022-12-29T06:23:29;5.70;99.90
33594;DHT22;19920;52.242;20.940;2022-12-29T06:25:55;5.70;99.90
33594;DHT22;19920;52.242;20.940;2022-12-29T06:28:21;5.70;99.90
33594;DHT22;19920;52.242;20.940;2022-12-29T06:30:47;5.70;99.90
33594;DHT22;19920;52.242;20.940;2022-12-29T06:33:14;5.70;99.90
33594;DHT22;19920;52.242;20.940;2022-12-29T06:35:40;5.80;99.90
33594;DHT22;19920;52.242;20.940;2022-12-29T06:38:06;5.80;99.90
33594;DHT22;19920;52.242;20.940;2022-12-29T06:40:32;5.90;99.90
33594;DHT22;19920;52.242;20.940;2022-12-29T06:42:58;5.80;99.90
33594;DHT22;19920;52.242;20.940;2022-12-29T06:45:23;5.80;99.90
33594;DHT22;19920;52.242;20.940;2022-12-29T06:47:49;5.80;99.90
33594;DHT22;19920;52.242;20.940;2022-12-29T06:50:14;5.80;99.90
33594;DHT22;19920;52.242;20.940;2022-12-29T06:52:40;5.90;99.90
33594;DHT22;19920;52.242;20.940;2022-12-29T06:55:06;5.80;99.90
33594;DHT22;19920;52.242;20.940;2022-12-29T06:57:32;5.80;99.90
33594;DHT22;19920;52.242;20.940;2022-12-29T06:59:57;5.90;99.90
33594;DHT22;19920;52.242;20.940;2022-12-29T07:02:23;5.90;99.90
33594;DHT22;19920;52.242;20.940;2022-12-29T07:04:51;5.90;99.90
33594;DHT22;19920;52.242;20.940;2022-12-29T07:07:20;5.90;99.90
33594;DHT22;19920;52.242;20.940;2022-12-29T07:09:46;5.90;99.90
33594;DHT22;19920;52.242;20.940;2022-12-29T07:12:12;6.10;99.90
33594;DHT22;19920;52.242;20.940;2022-12-29T07:14:38;6.10;99.90
33594;DHT22;19920;52.242;20.940;2022-12-29T07:17:04;6.10;99.90
33594;DHT22;19920;52.242;20.940;2022-12-29T07:19:32;6.10;99.90
33594;DHT22;19920;52.242;20.940;2022-12-29T07:21:57;6.10;99.90
33594;DHT22;19920;52.242;20.940;2022-12-29T07:24:23;6.20;99.90
33594;DHT22;19920;52.242;20.940;2022-12-29T07:26:51;6.20;99.90
33594;DHT22;19920;52.242;20.940;2022-12-29T07:29:17;6.20;99.90
33594;DHT22;19920;52.242;20.940;2022-12-29T07:31:42;6.30;99.90
33594;DHT22;19920;52.242;20.940;2022-12-29T07:34:09;6.30;99.90
33594;DHT22;19920;52.242;20.940;2022-12-29T07:36:34;6.30;99.90
33594;DHT22;19920;52.242;20.940;2022-12-29T07:39:00;6.40;99.90
33594;DHT22;19920;52.242;20.940;2022-12-29T07:41:26;6.40;99.90
33594;DHT22;19920;52.242;20.940;2022-12-29T07:43:51;6.40;99.90
33594;DHT22;19920;52.242;20.940;2022-12-29T07:46:17;6.50;99.90
33594;DHT22;19920;52.242;20.940;2022-12-29T07:48:42;6.50;99.90
33594;DHT22;19920;52.242;20.940;2022-12-29T07:51:08;6.60;99.90
33594;DHT22;19920;52.242;20.940;2022-12-29T07:53:35;6.60;99.90
33594;DHT22;19920;52.242;20.940;2022-12-29T07:56:00;6.60;99.90
33594;DHT22;19920;52.242;20.940;2022-12-29T07:58:26;6.50;99.90
33594;DHT22;19920;52.242;20.940;2022-12-29T08:00:55;6.60;99.90
33594;DHT22;19920;52.242;20.940;2022-12-29T08:03:21;6.70;99.90
33594;DHT22;19920;52.242;20.940;2022-12-29T08:05:47;6.60;99.90
33594;DHT22;19920;52.242;20.940;2022-12-29T08:08:12;6.80;99.90
33594;DHT22;19920;52.242;20.940;2022-12-29T08:10:38;6.80;99.90
33594;DHT22;19920;52.242;20.940;2022-12-29T08:13:04;6.80;99.90
33594;DHT22;19920;52.242;20.940;2022-12-29T08:15:29;6.90;99.90
33594;DHT22;19920;52.242;20.940;2022-12-29T08:17:55;6.90;99.90
33594;DHT22;19920;52.242;20.940;2022-12-29T08:20:20;6.90;99.90
33594;DHT22;19920;52.242;20.940;2022-12-29T08:22:46;7.10;99.90
33594;DHT22;19920;52.242;20.940;2022-12-29T08:25:12;7.20;99.90
33594;DHT22;19920;52.242;20.940;2022-12-29T08:27:37;7.30;99.90
33594;DHT22;19920;52.242;20.940;2022-12-29T08:30:04;7.30;99.90
33594;DHT22;19920;52.242;20.940;2022-12-29T08:32:29;7.30;99.90
33594;DHT22;19920;52.242;20.940;2022-12-29T08:34:55;7.50;99.90
33594;DHT22;19920;52.242;20.940;2022-12-29T08:37:21;7.50;99.90
33594;DHT22;19920;52.242;20.940;2022-12-29T08:39:47;7.50;99.90
33594;DHT22;19920;52.242;20.940;2022-12-29T08:42:13;7.60;99.90
33594;DHT22;19920;52.242;20.940;2022-12-29T08:44:39;7.50;99.90
33594;DHT22;19920;52.242;20.940;2022-12-29T08:47:05;7.70;99.90
33594;DHT22;19920;52.242;20.940;2022-12-29T08:49:30;7.70;99.90
33594;DHT22;19920;52.242;20.940;2022-12-29T08:51:56;7.70;99.90
33594;DHT22;19920;52.242;20.940;2022-12-29T08:54:22;7.70;99.90
33594;DHT22;19920;52.242;20.940;2022-12-29T08:56:47;7.70;99.90
33594;DHT22;19920;52.242;20.940;2022-12-29T08:59:13;7.80;99.90
33594;DHT22;19920;52.242;20.940;2022-12-29T09:01:39;8.00;99.90
33594;DHT22;19920;52.242;20.940;2022-12-29T09:04:06;8.00;99.90
33594;DHT22;19920;52.242;20.940;2022-12-29T09:06:32;8.00;99.90
33594;DHT22;19920;52.242;20.940;2022-12-29T09:08:57;8.10;99.90
33594;DHT22;19920;52.242;20.940;2022-12-29T09:11:24;8.10;99.90
33594;DHT22;19920;52.242;20.940;2022-12-29T09:13:51;8.10;99.90
33594;DHT22;19920;52.242;20.940;2022-12-29T09:16:17;8.20;99.90
33594;DHT22;19920;52.242;20.940;2022-12-29T09:18:43;8.30;99.90
33594;DHT22;19920;52.242;20.940;2022-12-29T09:21:10;8.50;99.90
33594;DHT22;19920;52.242;20.940;2022-12-29T09:23:36;8.60;99.90
33594;DHT22;19920;52.242;20.940;2022-12-29T09:26:03;8.70;99.90
33594;DHT22;19920;52.242;20.940;2022-12-29T09:28:29;8.90;99.90
33594;DHT22;19920;52.242;20.940;2022-12-29T09:30:55;8.90;99.90
33594;DHT22;19920;52.242;20.940;2022-12-29T09:33:21;9.00;99.90
33594;DHT22;19920;52.242;20.940;2022-12-29T09:35:57;9.00;99.90
33594;DHT22;19920;52.242;20.940;2022-12-29T09:38:24;8.90;99.90
33594;DHT22;19920;52.242;20.940;2022-12-29T09:46:25;8.70;99.90
33594;DHT22;19920;52.242;20.940;2022-12-29T09:51:54;8.80;99.90
33594;DHT22;19920;52.242;20.940;2022-12-29T09:57:41;8.90;99.90
33594;DHT22;19920;52.242;20.940;2022-12-29T10:00:17;8.90;99.90
33594;DHT22;19920;52.242;20.940;2022-12-29T10:02:48;8.90;99.90
33594;DHT22;19920;52.242;20.940;2022-12-29T10:10:35;8.80;99.90
33594;DHT22;19920;52.242;20.940;2022-12-29T10:23:45;8.80;99.90
33594;DHT22;19920;52.242;20.940;2022-12-29T10:26:26;8.80;99.90
33594;DHT22;19920;52.242;20.940;2022-12-29T10:28:59;8.80;99.90
33594;DHT22;19920;52.242;20.940;2022-12-29T10:31:54;8.90;99.90
33594;DHT22;19920;52.242;20.940;2022-12-29T10:34:43;8.90;99.90
33594;DHT22;19920;52.242;20.940;2022-12-29T10:39:55;9.00;99.90
33594;DHT22;19920;52.242;20.940;2022-12-29T10:44:51;8.90;99.90
33594;DHT22;19920;52.242;20.940;2022-12-29T10:47:25;9.10;99.90
33594;DHT22;19920;52.242;20.940;2022-12-29T10:49:52;9.20;99.90
33594;DHT22;19920;52.242;20.940;2022-12-29T10:52:20;9.20;99.90
33594;DHT22;19920;52.242;20.940;2022-12-29T10:59:43;9.40;99.90
33594;DHT22;19920;52.242;20.940;2022-12-29T11:07:28;9.40;99.90
33594;DHT22;19920;52.242;20.940;2022-12-29T11:09:55;9.40;99.90
33594;DHT22;19920;52.242;20.940;2022-12-29T11:12:40;9.40;99.90
33594;DHT22;19920;52.242;20.940;2022-12-29T11:20:38;9.60;99.90
33594;DHT22;19920;52.242;20.940;2022-12-29T11:26:20;9.60;99.90
33594;DHT22;19920;52.242;20.940;2022-12-29T11:31:44;9.60;99.90
33594;DHT22;19920;52.242;20.940;2022-12-29T11:34:18;9.50;99.90
33594;DHT22;19920;52.242;20.940;2022-12-29T11:36:44;9.60;99.90
33594;DHT22;19920;52.242;20.940;2022-12-29T11:39:28;9.60;99.90
33594;DHT22;19920;52.242;20.940;2022-12-29T11:41:56;9.60;99.90
33594;DHT22;19920;52.242;20.940;2022-12-29T11:44:23;9.60;99.90
33594;DHT22;19920;52.242;20.940;2022-12-29T11:46:51;9.60;99.90
33594;DHT22;19920;52.242;20.940;2022-12-29T11:49:24;9.50;99.90
33594;DHT22;19920;52.242;20.940;2022-12-29T11:51:52;9.50;99.90
33594;DHT22;19920;52.242;20.940;2022-12-29T11:54:35;9.50;99.90
33594;DHT22;19920;52.242;20.940;2022-12-29T11:57:14;9.50;99.90
33594;DHT22;19920;52.242;20.940;2022-12-29T11:59:43;9.50;99.90
33594;DHT22;19920;52.242;20.940;2022-12-29T12:04:45;9.60;99.90
33594;DHT22;19920;52.242;20.940;2022-12-29T12:07:42;9.60;99.90
33594;DHT22;19920;52.242;20.940;2022-12-29T12:10:24;9.60;99.90
33594;DHT22;19920;52.242;20.940;2022-12-29T12:13:29;9.60;99.90
33594;DHT22;19920;52.242;20.940;2022-12-29T12:16:20;9.60;99.90
33594;DHT22;19920;52.242;20.940;2022-12-29T12:18:53;9.60;99.90
33594;DHT22;19920;52.242;20.940;2022-12-29T12:26:55;9.80;99.90
33594;DHT22;19920;52.242;20.940;2022-12-29T12:29:26;9.90;99.90
33594;DHT22;19920;52.242;20.940;2022-12-29T12:32:04;9.90;99.90
33594;DHT22;19920;52.242;20.940;2022-12-29T12:34:46;9.90;99.90
33594;DHT22;19920;52.242;20.940;2022-12-29T13:04:34;10.10;99.90
33594;DHT22;19920;52.242;20.940;2022-12-29T13:07:40;10.20;99.90
33594;DHT22;19920;52.242;20.940;2022-12-29T13:30:01;10.30;99.90
33594;DHT22;19920;52.242;20.940;2022-12-29T13:40:55;10.30;99.90
33594;DHT22;19920;52.242;20.940;2022-12-29T13:43:22;10.30;99.90
33594;DHT22;19920;52.242;20.940;2022-12-29T13:46:28;10.30;99.90
33594;DHT22;19920;52.242;20.940;2022-12-29T13:51:47;10.20;99.90
33594;DHT22;19920;52.242;20.940;2022-12-29T13:56:56;10.20;99.90
33594;DHT22;19920;52.242;20.940;2022-12-29T14:02:47;10.30;99.90
33594;DHT22;19920;52.242;20.940;2022-12-29T14:07:43;10.20;99.90
33594;DHT22;19920;52.242;20.940;2022-12-29T14:10:47;10.20;99.90
33594;DHT22;19920;52.242;20.940;2022-12-29T14:13:15;10.10;99.90
33594;DHT22;19920;52.242;20.940;2022-12-29T14:15:44;10.10;99.90
33594;DHT22;19920;52.242;20.940;2022-12-29T14:31:02;10.10;99.90
33594;DHT22;19920;52.242;20.940;2022-12-29T14:33:30;10.10;99.90
33594;DHT22;19920;52.242;20.940;2022-12-29T14:36:26;10.10;99.90
33594;DHT22;19920;52.242;20.940;2022-12-29T14:38:58;10.10;99.90
33594;DHT22;19920;52.242;20.940;2022-12-29T14:41:29;10.00;99.90
33594;DHT22;19920;52.242;20.940;2022-12-29T14:44:09;10.10;99.90
33594;DHT22;19920;52.242;20.940;2022-12-29T14:49:20;10.10;99.90
33594;DHT22;19920;52.242;20.940;2022-12-29T14:51:47;10.10;99.90
33594;DHT22;19920;52.242;20.940;2022-12-29T14:54:47;10.10;99.90
33594;DHT22;19920;52.242;20.940;2022-12-29T14:57:35;10.10;99.90
33594;DHT22;19920;52.242;20.940;2022-12-29T15:00:32;10.10;99.90
33594;DHT22;19920;52.242;20.940;2022-12-29T15:06:07;10.10;99.90
33594;DHT22;19920;52.242;20.940;2022-12-29T15:16:53;9.90;99.90
33594;DHT22;19920;52.242;20.940;2022-12-29T15:19:23;9.90;99.90
33594;DHT22;19920;52.242;20.940;2022-12-29T15:21:49;9.90;99.90
33594;DHT22;19920;52.242;20.940;2022-12-29T15:24:15;9.90;99.90
33594;DHT22;19920;52.242;20.940;2022-12-29T15:26:50;9.80;99.90
33594;DHT22;19920;52.242;20.940;2022-12-29T15:29:37;9.80;99.90
33594;DHT22;19920;52.242;20.940;2022-12-29T15:34:41;9.90;99.90
33594;DHT22;19920;52.242;20.940;2022-12-29T15:37:08;9.80;99.90
33594;DHT22;19920;52.242;20.940;2022-12-29T15:39:34;9.90;99.90
33594;DHT22;19920;52.242;20.940;2022-12-29T15:42:06;9.80;99.90
33594;DHT22;19920;52.242;20.940;2022-12-29T15:44:44;9.80;99.90
33594;DHT22;19920;52.242;20.940;2022-12-29T15:47:22;9.70;99.90
33594;DHT22;19920;52.242;20.940;2022-12-29T15:49:53;9.70;99.90
33594;DHT22;19920;52.242;20.940;2022-12-29T15:52:21;9.60;99.90
33594;DHT22;19920;52.242;20.940;2022-12-29T15:54:49;9.60;99.90
33594;DHT22;19920;52.242;20.940;2022-12-29T15:57:31;9.50;99.90
33594;DHT22;19920;52.242;20.940;2022-12-29T16:00:02;9.40;99.90
33594;DHT22;19920;52.242;20.940;2022-12-29T16:02:28;9.30;99.90
33594;DHT22;19920;52.242;20.940;2022-12-29T16:04:54;9.30;99.90
33594;DHT22;19920;52.242;20.940;2022-12-29T16:07:31;9.30;99.90
33594;DHT22;19920;52.242;20.940;2022-12-29T16:10:01;9.20;99.90
33594;DHT22;19920;52.242;20.940;2022-12-29T16:12:34;9.20;99.90
33594;DHT22;19920;52.242;20.940;2022-12-29T16:15:03;9.20;99.90
33594;DHT22;19920;52.242;20.940;2022-12-29T16:17:32;9.20;99.90
33594;DHT22;19920;52.242;20.940;2022-12-29T16:20:17;9.20;99.90
33594;DHT22;19920;52.242;20.940;2022-12-29T16:22:48;9.10;99.90
33594;DHT22;19920;52.242;20.940;2022-12-29T16:25:32;9.10;99.90
33594;DHT22;19920;52.242;20.940;2022-12-29T16:28:00;9.20;99.90
33594;DHT22;19920;52.242;20.940;2022-12-29T16:30:29;9.20;99.90
33594;DHT22;19920;52.242;20.940;2022-12-29T16:32:57;9.20;99.90
33594;DHT22;19920;52.242;20.940;2022-12-29T16:35:26;9.20;99.90
33594;DHT22;19920;52.242;20.940;2022-12-29T16:38:21;9.10;99.90
33594;DHT22;19920;52.242;20.940;2022-12-29T16:40:55;9.10;99.90
33594;DHT22;19920;52.242;20.940;2022-12-29T16:43:23;9.10;99.90
33594;DHT22;19920;52.242;20.940;2022-12-29T16:53:32;9.30;99.90
33594;DHT22;19920;52.242;20.940;2022-12-29T16:56:03;9.30;99.90
33594;DHT22;19920;52.242;20.940;2022-12-29T16:58:30;9.40;99.90
33594;DHT22;19920;52.242;20.940;2022-12-29T17:00:59;9.50;99.90
33594;DHT22;19920;52.242;20.940;2022-12-29T17:03:33;9.60;99.90
33594;DHT22;19920;52.242;20.940;2022-12-29T17:05:59;9.60;99.90
33594;DHT22;19920;52.242;20.940;2022-12-29T17:08:25;9.70;99.90
33594;DHT22;19920;52.242;20.940;2022-12-29T17:10:52;9.80;99.90
33594;DHT22;19920;52.242;20.940;2022-12-29T17:13:37;9.80;99.90
33594;DHT22;19920;52.242;20.940;2022-12-29T17:16:07;9.80;99.90
33594;DHT22;19920;52.242;20.940;2022-12-29T17:18:34;9.80;99.90
33594;DHT22;19920;52.242;20.940;2022-12-29T17:21:00;9.80;99.90
33594;DHT22;19920;52.242;20.940;2022-12-29T17:23:32;9.90;99.90
33594;DHT22;19920;52.242;20.940;2022-12-29T17:25:58;9.90;99.90
33594;DHT22;19920;52.242;20.940;2022-12-29T17:28:26;9.90;99.90
33594;DHT22;19920;52.242;20.940;2022-12-29T17:30:57;9.90;99.90
33594;DHT22;19920;52.242;20.940;2022-12-29T17:33:23;9.80;99.90
33594;DHT22;19920;52.242;20.940;2022-12-29T17:35:49;9.80;99.90
33594;DHT22;19920;52.242;20.940;2022-12-29T17:38:18;9.80;99.90
33594;DHT22;19920;52.242;20.940;2022-12-29T17:40:44;9.90;99.90
33594;DHT22;19920;52.242;20.940;2022-12-29T17:43:13;9.80;99.90
33594;DHT22;19920;52.242;20.940;2022-12-29T17:45:40;9.80;99.90
33594;DHT22;19920;52.242;20.940;2022-12-29T17:48:14;9.80;99.90
33594;DHT22;19920;52.242;20.940;2022-12-29T17:50:40;9.90;99.90
33594;DHT22;19920;52.242;20.940;2022-12-29T17:53:13;9.80;99.90
33594;DHT22;19920;52.242;20.940;2022-12-29T17:55:40;9.90;99.90
33594;DHT22;19920;52.242;20.940;2022-12-29T18:00:41;9.80;99.90
33594;DHT22;19920;52.242;20.940;2022-12-29T18:03:12;9.80;99.90
33594;DHT22;19920;52.242;20.940;2022-12-29T18:05:38;9.70;99.90
33594;DHT22;19920;52.242;20.940;2022-12-29T18:08:04;9.70;99.90
33594;DHT22;19920;52.242;20.940;2022-12-29T18:10:30;9.80;99.90
33594;DHT22;19920;52.242;20.940;2022-12-29T18:12:58;9.70;99.90
33594;DHT22;19920;52.242;20.940;2022-12-29T18:15:25;9.70;99.90
33594;DHT22;19920;52.242;20.940;2022-12-29T18:18:14;9.70;99.90
33594;DHT22;19920;52.242;20.940;2022-12-29T18:20:41;9.60;99.90
33594;DHT22;19920;52.242;20.940;2022-12-29T18:23:33;9.60;99.90
33594;DHT22;19920;52.242;20.940;2022-12-29T18:26:17;9.70;99.90
33594;DHT22;19920;52.242;20.940;2022-12-29T18:28:44;9.70;99.90
33594;DHT22;19920;52.242;20.940;2022-12-29T18:31:23;9.70;99.90
33594;DHT22;19920;52.242;20.940;2022-12-29T18:33:50;9.60;99.90
33594;DHT22;19920;52.242;20.940;2022-12-29T18:36:17;9.60;99.90
33594;DHT22;19920;52.242;20.940;2022-12-29T18:38:44;9.60;99.90
33594;DHT22;19920;52.242;20.940;2022-12-29T18:41:27;9.50;99.90
33594;DHT22;19920;52.242;20.940;2022-12-29T18:43:56;9.50;99.90
33594;DHT22;19920;52.242;20.940;2022-12-29T18:46:22;9.40;99.90
33594;DHT22;19920;52.242;20.940;2022-12-29T18:48:48;9.40;99.90
33594;DHT22;19920;52.242;20.940;2022-12-29T18:51:22;9.50;99.90
33594;DHT22;19920;52.242;20.940;2022-12-29T18:53:48;9.50;99.90
33594;DHT22;19920;52.242;20.940;2022-12-29T18:56:15;9.50;99.90
33594;DHT22;19920;52.242;20.940;2022-12-29T18:58:40;9.50;99.90
33594;DHT22;19920;52.242;20.940;2022-12-29T19:01:09;9.50;99.90
33594;DHT22;19920;52.242;20.940;2022-12-29T19:03:40;9.40;99.90
33594;DHT22;19920;52.242;20.940;2022-12-29T19:06:06;9.50;99.90
33594;DHT22;19920;52.242;20.940;2022-12-29T19:08:31;9.40;99.90
33594;DHT22;19920;52.242;20.940;2022-12-29T19:10:58;9.40;99.90
33594;DHT22;19920;52.242;20.940;2022-12-29T19:13:24;9.40;99.90
33594;DHT22;19920;52.242;20.940;2022-12-29T19:15:56;9.40;99.90
33594;DHT22;19920;52.242;20.940;2022-12-29T19:18:23;9.30;99.90